Historyczne dane pomiarowe

Dodano dane terminowe – wersja testowa.

Dane z okresu 1951-2019

Wersja bazy: 1.34 [2019-03-16, lista zmian], aktualizacja planowana na 2019-04-15

Dane meteo z obszaru Polski uzyskane na podstawie danych udostępnionych przez Instytut Meteorologii i Gospodarki Wodnej – Państwowy Instytut Badawczy.

 

Wybierz Datę:    

       

TemperaturaWilgotnośćWiatrCiśnienieOpadyŚniegCzas trwania zjawisk
 Stacja t tx tn tng RH VA  wxwx mslp ppp RRR   cm mm wxwxwxwxwxwxwx
1961-01-17 -6.6 -0.7 -8.5-10.7 88.5- 3.7 3.0---- 0.0-- 10---------
1961-01-18-11.4 -7.7-13.9-17.1 72.8- 0.0 4.7---- 0.0-- 10---------
1961-01-19 -8.5 -4.2-14.2-16.4 65.8- 0.0 4.0---- 0.0-- 9---------
1961-01-20 -5.6 -1.0-10.5-12.5 79.5- 0.0 4.0---- 0.0-- 9---------
1961-01-21 -7.3 -3.6-10.5-12.2 88.3- 1.3 4.0---- 0.0-- 8---------
1961-01-22 -2.5 -1.7-10.4-12.8 91.3- 6.3 3.3---- 4.2-- 8---------
1961-01-23 -7.5 -1.4-10.4 -3.0 87.0- 5.0 4.3---- 0.2-- 14---------
1961-01-24-10.6 -7.2-15.3-17.7 81.3- 0.3 2.7---- 0.1-- 14---------
1961-01-25-10.6 -8.4-12.7-12.6 80.5- 2.7 4.7---- 0.0-- 15---------
1961-01-26-13.9-10.3-17.1-19.3 79.8- 0.0 4.3---- 0.0-- 14---------
1961-01-27-11.6 -5.9-18.0-20.9 72.0- 1.0 4.0---- 0.0-- 13---------
1961-01-28 -4.2 -0.2-12.2-15.6 67.8- 4.7 5.0---- 0.0-- 13---------
1961-01-29 2.3 6.0 -7.3-12.4 73.3- 5.0 5.7---- 0.0-- 13---------
1961-01-30 4.8 6.8 2.0 -0.7 80.5- 7.3 7.0---- 4.4-- 6---------
1961-01-31 4.5 6.8 4.1 2.0 93.5- 6.7 4.0---- 10.6------------
1961-02-01 2.6 4.4 0.4- 85.0- 7.7 4.0---- 1.1------------
1961-02-02 2.6 5.5 0.6- 69.0- 4.3 4.0---- 1.1------------
1961-02-03 -0.1 1.1 -1.0- 94.0- 8.0 2.7---- 1.0-- 2---------
1961-02-04 0.0 1.3 -1.7- 89.3- 6.0 3.3---- 0.1-- 2---------
1961-02-05 -1.6 2.1 -3.8- 88.3- 4.3 2.3---- 0.0-- 1---------
1961-02-06 1.2 2.8 -5.2- 80.5- 5.3 4.7---- 0.2------------
1961-02-07 3.8 7.7 1.9- 84.3- 5.0 5.7---- 3.7------------
1961-02-08 2.6 4.1 1.5- 91.5- 6.3 4.3---- 3.7------------
1961-02-09 5.3 7.8 -0.6- 95.3- 8.0 4.0---- 5.1------------
1961-02-10 1.9 6.1 1.4- 92.5- 8.0 4.3---- 0.3------------
1961-02-11 5.4 7.6 1.0- 85.3- 8.0 5.0---- 2.2------------
1961-02-12 4.1 5.5 3.4- 96.3- 7.7 3.0---- 1.8------------
1961-02-13 5.1 7.0 2.3- 88.3- 6.3 2.0---- 0.0------------
1961-02-14 5.3 7.1 3.4- 94.3- 8.0 3.0---- 0.0------------
1961-02-15 9.1 14.8 2.4- 72.5- 0.3 2.7---- 0.0------------
333.7 ms

 

Źródłem pochodzenia danych jest Instytut Meteorologii i Gospodarki Wodnej – Państwowy Instytut Badawczy. Dane Instytutu Meteorologii i Gospodarki Wodnej – Państwowego Instytutu Badawczego zostały przetworzone.

Dane źródłowe można odnaleźć na stronie https://dane.imgw.pl